Flight Track Log - Related Links

Times and Time Zones

All times are in EDT time to prevent confusion due to time zone crossing. See the PDT4207 flight status page for this flight to view local times or setup timezone preferences in your user account.

Time Position Orientation Groundspeed Altitude Reporting Facility
EDT Latitude Longitude Course Direction KTS MPH feet Rate Location/Type
Wed 09:31:43 PM 39.9000 -75.2333 295° West 116 133 700  Level Philadelphia TRACON
Wed 09:32:07 PM 39.9000 -75.2500 270° West 105 121 1,500 1,488 Climbing Philadelphia TRACON
Wed 09:33:52 PM 39.9131 -75.3258 283° West 125 144 3,900 1,418 Climbing New York Center
Wed 09:34:00 PM 40.1107 -75.3139 311° West  Level Estimated
Wed 09:34:52 PM 39.9194 -75.3775 279° West 136 157 5,400  Level New York Center
Wed 09:35:00 PM 40.1902 -75.3383 311° West  Level Estimated
Wed 09:35:52 PM 39.9319 -75.4297 287° West 151 174 6,900  Level New York Center
Wed 09:36:00 PM 40.2243 -75.4354 295° West  Level FlightAware Approximate
Wed 09:36:52 PM 39.9422 -75.4875 283° West 151 174 14,000  Level New York Center
Wed 09:37:52 PM 39.9853 -75.5011 346° North 129 148 9,100 -2,050 Descending New York Center
Wed 09:38:52 PM 40.0411 -75.5158 349° North 176 203 9,900 800 Climbing New York Center
Wed 09:39:52 PM 40.0964 -75.5358 345° North 197 227 10,700 800 Climbing New York Center
Wed 09:40:52 PM 40.1544 -75.5425 355° North 203 234 11,500 700 Climbing New York Center
Wed 09:41:52 PM 40.2167 -75.5522 353° North 208 239 12,100 250 Climbing New York Center
Wed 09:42:52 PM 40.2744 -75.5644 351° North 230 265 12,000  Descending New York Center
Wed 09:43:52 PM 40.3425 -75.5828 348° North 230 265 12,100 50 Climbing New York Center
Wed 09:44:52 PM 40.4044 -75.6006 348° North 230 265 12,100  Level New York Center
Wed 09:45:52 PM 40.4683 -75.6189 348° North 230 265 12,100 -50 Level New York Center
Wed 09:46:52 PM 40.5264 -75.6228 357° North 235 270 12,000  Descending New York Center
Wed 09:47:52 PM 40.5931 -75.6250 359° North 235 270 12,100  Climbing New York Center
Wed 09:48:52 PM 40.6567 -75.6458 346° North 235 270 12,000  Descending New York Center
Wed 09:49:52 PM 40.7247 -75.6644 348° North 235 270 12,100 50 Climbing New York Center
Wed 09:50:52 PM 40.7911 -75.6744 353° North 235 270 12,100  Level New York Center
Wed 09:51:52 PM 40.8572 -75.6875 352° North 235 270 12,100  Level New York Center
Wed 09:52:52 PM 40.9131 -75.6997 351° North 235 270 12,100  Level New York Center
Wed 09:53:52 PM 40.9853 -75.7133 352° North 235 270 12,100  Level New York Center
Wed 09:54:52 PM 41.0517 -75.7236 353° North 235 270 12,100  Level New York Center
Wed 09:55:52 PM 41.1131 -75.7475 344° North 235 270 12,100  Level New York Center
Wed 09:56:52 PM 41.1769 -75.7631 350° North 235 270 12,100  Level New York Center
Wed 09:57:52 PM 41.2350 -75.7703 355° North 235 270 12,100  Level New York Center
Wed 09:58:52 PM 41.3031 -75.7864 350° North 230 265 12,100  Level New York Center
Wed 09:59:52 PM 41.3669 -75.8022 349° North 230 265 12,100 -50 Level New York Center
Wed 10:00:52 PM 41.4311 -75.8125 353° North 230 265 12,000  Descending New York Center
Wed 10:01:52 PM 41.4950 -75.8283 349° North 230 265 12,100 -350 Climbing New York Center
Wed 10:02:52 PM 41.5531 -75.8356 355° North 235 270 11,300 -900 Descending New York Center
Wed 10:03:52 PM 41.6219 -75.8294 North 235 270 10,300 -1,150 Descending New York Center
Wed 10:04:52 PM 41.6972 -75.8242 North 240 276 9,000 -1,350 Descending New York Center
Wed 10:05:52 PM 41.7661 -75.8183 North 240 276 7,600 -1,500 Descending New York Center
Wed 10:06:52 PM 41.8308 -75.8147 North 240 276 6,000 -1,450 Descending New York Center
Wed 10:07:52 PM 41.8850 -75.8133 North 228 262 4,700 -1,000 Descending New York Center
Wed 10:08:52 PM 41.9433 -75.8122 North 215 247 4,000 -350 Descending New York Center
Wed 10:09:52 PM 42.0014 -75.8194 355° North 195 224 4,000  Level New York Center
Wed 10:10:52 PM 42.0439 -75.8450 336° Northwest 176 203 4,000  Level New York Center
Wed 10:11:52 PM 42.0800 -75.8758 328° Northwest 163 188 4,000 -100 Level New York Center
Wed 10:12:52 PM 42.1103 -75.9006 329° Northwest 142 163 3,800 -400 Descending New York Center
Wed 10:13:52 PM 42.1325 -75.9189 329° Northwest 122 140 3,200 -650 Descending New York Center
Wed 10:14:52 PM 42.1606 -75.9408 330° Northwest 117 135 2,500 -600 Descending New York Center
Wed 10:15:52 PM 42.1925 -75.9714 325° Northwest 123 142 2,000 -500 Descending New York Center

Login

Don't have an account? Register now (free) for customized features, flight alerts, and more!